sensor_id;sensor_type;location;lat;lon;timestamp;P1;durP1;ratioP1;P2;durP2;ratioP2
56477;SDS011;42382;53.210;5.772;2022-12-01T00:00:46;76.65;;;36.28;;
56477;SDS011;42382;53.210;5.772;2022-12-01T00:03:12;76.35;;;35.38;;
56477;SDS011;42382;53.210;5.772;2022-12-01T00:05:38;76.22;;;37.63;;
56477;SDS011;42382;53.210;5.772;2022-12-01T00:08:04;78.53;;;36.58;;
56477;SDS011;42382;53.210;5.772;2022-12-01T00:10:30;79.72;;;37.30;;
56477;SDS011;42382;53.210;5.772;2022-12-01T00:12:58;76.25;;;34.90;;
56477;SDS011;42382;53.210;5.772;2022-12-01T00:15:30;82.13;;;36.47;;
56477;SDS011;42382;53.210;5.772;2022-12-01T00:17:58;74.32;;;35.50;;
56477;SDS011;42382;53.210;5.772;2022-12-01T00:20:25;77.85;;;36.03;;
56477;SDS011;42382;53.210;5.772;2022-12-01T00:22:50;76.45;;;34.92;;
56477;SDS011;42382;53.210;5.772;2022-12-01T00:25:17;76.38;;;37.10;;
56477;SDS011;42382;53.210;5.772;2022-12-01T00:27:47;78.75;;;36.20;;
56477;SDS011;42382;53.210;5.772;2022-12-01T00:30:14;83.13;;;37.80;;
56477;SDS011;42382;53.210;5.772;2022-12-01T00:32:40;79.25;;;37.25;;
56477;SDS011;42382;53.210;5.772;2022-12-01T00:35:06;76.68;;;36.22;;
56477;SDS011;42382;53.210;5.772;2022-12-01T00:37:33;80.45;;;37.20;;
56477;SDS011;42382;53.210;5.772;2022-12-01T00:39:59;79.75;;;36.50;;
56477;SDS011;42382;53.210;5.772;2022-12-01T00:42:25;93.88;;;39.80;;
56477;SDS011;42382;53.210;5.772;2022-12-01T00:44:51;86.25;;;39.78;;
56477;SDS011;42382;53.210;5.772;2022-12-01T00:47:17;88.75;;;39.97;;
56477;SDS011;42382;53.210;5.772;2022-12-01T00:49:43;93.72;;;38.53;;
56477;SDS011;42382;53.210;5.772;2022-12-01T00:52:10;82.70;;;36.67;;
56477;SDS011;42382;53.210;5.772;2022-12-01T00:54:40;81.43;;;37.50;;
56477;SDS011;42382;53.210;5.772;2022-12-01T00:57:05;83.18;;;39.08;;
56477;SDS011;42382;53.210;5.772;2022-12-01T00:59:31;90.88;;;40.78;;
56477;SDS011;42382;53.210;5.772;2022-12-01T01:01:57;91.63;;;38.97;;
56477;SDS011;42382;53.210;5.772;2022-12-01T01:04:23;88.43;;;38.60;;
56477;SDS011;42382;53.210;5.772;2022-12-01T01:06:48;85.28;;;38.40;;
56477;SDS011;42382;53.210;5.772;2022-12-01T01:09:14;82.82;;;38.05;;
56477;SDS011;42382;53.210;5.772;2022-12-01T01:11:46;90.50;;;37.90;;
56477;SDS011;42382;53.210;5.772;2022-12-01T01:14:12;83.55;;;37.13;;
56477;SDS011;42382;53.210;5.772;2022-12-01T01:16:37;94.75;;;41.30;;
56477;SDS011;42382;53.210;5.772;2022-12-01T01:19:03;90.47;;;38.08;;
56477;SDS011;42382;53.210;5.772;2022-12-01T01:21:29;96.70;;;41.13;;
56477;SDS011;42382;53.210;5.772;2022-12-01T01:23:54;85.72;;;38.40;;
56477;SDS011;42382;53.210;5.772;2022-12-01T01:26:21;87.70;;;39.25;;
56477;SDS011;42382;53.210;5.772;2022-12-01T01:28:48;86.53;;;38.22;;
56477;SDS011;42382;53.210;5.772;2022-12-01T01:31:16;90.18;;;37.92;;
56477;SDS011;42382;53.210;5.772;2022-12-01T01:33:44;92.07;;;40.40;;
56477;SDS011;42382;53.210;5.772;2022-12-01T01:36:10;89.93;;;39.15;;
56477;SDS011;42382;53.210;5.772;2022-12-01T01:38:37;84.22;;;38.28;;
56477;SDS011;42382;53.210;5.772;2022-12-01T01:41:03;98.70;;;39.15;;
56477;SDS011;42382;53.210;5.772;2022-12-01T01:43:37;93.55;;;40.53;;
56477;SDS011;42382;53.210;5.772;2022-12-01T01:46:26;80.78;;;36.35;;
56477;SDS011;42382;53.210;5.772;2022-12-01T01:49:05;84.45;;;36.85;;
56477;SDS011;42382;53.210;5.772;2022-12-01T01:54:11;95.13;;;37.58;;
56477;SDS011;42382;53.210;5.772;2022-12-01T01:56:44;91.78;;;39.17;;
56477;SDS011;42382;53.210;5.772;2022-12-01T01:59:14;93.88;;;38.88;;
56477;SDS011;42382;53.210;5.772;2022-12-01T02:01:43;93.90;;;37.22;;
56477;SDS011;42382;53.210;5.772;2022-12-01T02:04:11;88.22;;;38.38;;
56477;SDS011;42382;53.210;5.772;2022-12-01T02:06:38;85.53;;;36.80;;
56477;SDS011;42382;53.210;5.772;2022-12-01T02:09:04;86.30;;;35.97;;
56477;SDS011;42382;53.210;5.772;2022-12-01T02:11:32;84.60;;;38.45;;
56477;SDS011;42382;53.210;5.772;2022-12-01T02:14:38;87.38;;;37.30;;
56477;SDS011;42382;53.210;5.772;2022-12-01T02:25:17;92.43;;;36.63;;
56477;SDS011;42382;53.210;5.772;2022-12-01T02:33:31;91.90;;;36.72;;
56477;SDS011;42382;53.210;5.772;2022-12-01T02:36:14;84.60;;;36.58;;
56477;SDS011;42382;53.210;5.772;2022-12-01T02:38:53;91.85;;;37.20;;
56477;SDS011;42382;53.210;5.772;2022-12-01T02:41:27;92.90;;;39.25;;
56477;SDS011;42382;53.210;5.772;2022-12-01T02:46:43;90.28;;;38.05;;
56477;SDS011;42382;53.210;5.772;2022-12-01T02:49:15;79.20;;;36.78;;
56477;SDS011;42382;53.210;5.772;2022-12-01T02:51:54;85.75;;;35.67;;
56477;SDS011;42382;53.210;5.772;2022-12-01T02:54:22;95.15;;;39.35;;
56477;SDS011;42382;53.210;5.772;2022-12-01T02:56:52;89.90;;;35.80;;
56477;SDS011;42382;53.210;5.772;2022-12-01T02:59:18;86.60;;;36.75;;
56477;SDS011;42382;53.210;5.772;2022-12-01T03:07:32;84.32;;;35.78;;
56477;SDS011;42382;53.210;5.772;2022-12-01T03:15:32;84.78;;;36.80;;
56477;SDS011;42382;53.210;5.772;2022-12-01T03:23:23;90.18;;;35.53;;
56477;SDS011;42382;53.210;5.772;2022-12-01T03:25:52;85.03;;;34.83;;
56477;SDS011;42382;53.210;5.772;2022-12-01T03:28:21;86.43;;;33.58;;
56477;SDS011;42382;53.210;5.772;2022-12-01T03:30:56;87.97;;;35.88;;
56477;SDS011;42382;53.210;5.772;2022-12-01T03:33:29;77.93;;;33.00;;
56477;SDS011;42382;53.210;5.772;2022-12-01T03:36:05;77.75;;;34.53;;
56477;SDS011;42382;53.210;5.772;2022-12-01T03:38:44;85.97;;;35.50;;
56477;SDS011;42382;53.210;5.772;2022-12-01T03:41:18;89.07;;;36.55;;
56477;SDS011;42382;53.210;5.772;2022-12-01T03:44:00;83.95;;;34.65;;
56477;SDS011;42382;53.210;5.772;2022-12-01T03:46:45;101.85;;;36.30;;
56477;SDS011;42382;53.210;5.772;2022-12-01T03:49:15;93.90;;;36.88;;
56477;SDS011;42382;53.210;5.772;2022-12-01T03:52:06;95.97;;;36.80;;
56477;SDS011;42382;53.210;5.772;2022-12-01T03:54:41;91.60;;;37.72;;
56477;SDS011;42382;53.210;5.772;2022-12-01T03:57:18;99.88;;;38.78;;
56477;SDS011;42382;53.210;5.772;2022-12-01T03:59:53;92.40;;;36.42;;
56477;SDS011;42382;53.210;5.772;2022-12-01T04:02:19;94.93;;;37.35;;
56477;SDS011;42382;53.210;5.772;2022-12-01T04:04:45;96.45;;;38.53;;
56477;SDS011;42382;53.210;5.772;2022-12-01T04:07:10;97.70;;;38.10;;
56477;SDS011;42382;53.210;5.772;2022-12-01T04:09:38;101.60;;;36.53;;
56477;SDS011;42382;53.210;5.772;2022-12-01T04:12:08;96.40;;;38.25;;
56477;SDS011;42382;53.210;5.772;2022-12-01T04:14:57;88.60;;;36.85;;
56477;SDS011;42382;53.210;5.772;2022-12-01T04:17:30;93.10;;;37.58;;
56477;SDS011;42382;53.210;5.772;2022-12-01T04:19:56;94.15;;;38.45;;
56477;SDS011;42382;53.210;5.772;2022-12-01T04:22:22;95.80;;;37.13;;
56477;SDS011;42382;53.210;5.772;2022-12-01T04:24:48;97.43;;;38.20;;
56477;SDS011;42382;53.210;5.772;2022-12-01T04:27:14;103.97;;;40.55;;
56477;SDS011;42382;53.210;5.772;2022-12-01T04:29:39;104.07;;;39.13;;
56477;SDS011;42382;53.210;5.772;2022-12-01T04:32:05;96.97;;;38.28;;
56477;SDS011;42382;53.210;5.772;2022-12-01T04:34:31;92.07;;;36.90;;
56477;SDS011;42382;53.210;5.772;2022-12-01T04:36:56;95.55;;;37.45;;
56477;SDS011;42382;53.210;5.772;2022-12-01T04:39:22;97.50;;;38.17;;
56477;SDS011;42382;53.210;5.772;2022-12-01T04:41:48;97.20;;;36.67;;
56477;SDS011;42382;53.210;5.772;2022-12-01T04:44:14;100.72;;;39.20;;
56477;SDS011;42382;53.210;5.772;2022-12-01T04:46:39;94.38;;;37.15;;
56477;SDS011;42382;53.210;5.772;2022-12-01T04:49:05;96.90;;;37.95;;
56477;SDS011;42382;53.210;5.772;2022-12-01T04:51:31;92.00;;;36.85;;
56477;SDS011;42382;53.210;5.772;2022-12-01T04:53:56;94.95;;;39.05;;
56477;SDS011;42382;53.210;5.772;2022-12-01T04:56:22;98.07;;;36.92;;
56477;SDS011;42382;53.210;5.772;2022-12-01T04:58:48;91.53;;;36.50;;
56477;SDS011;42382;53.210;5.772;2022-12-01T05:01:15;97.80;;;37.55;;
56477;SDS011;42382;53.210;5.772;2022-12-01T05:03:43;94.88;;;36.70;;
56477;SDS011;42382;53.210;5.772;2022-12-01T05:06:13;103.65;;;38.75;;
56477;SDS011;42382;53.210;5.772;2022-12-01T05:08:41;104.80;;;41.90;;
56477;SDS011;42382;53.210;5.772;2022-12-01T05:11:07;104.25;;;38.13;;
56477;SDS011;42382;53.210;5.772;2022-12-01T05:13:35;107.72;;;39.38;;
56477;SDS011;42382;53.210;5.772;2022-12-01T05:16:07;109.63;;;41.53;;
56477;SDS011;42382;53.210;5.772;2022-12-01T05:18:33;112.43;;;42.83;;
56477;SDS011;42382;53.210;5.772;2022-12-01T05:20:59;104.57;;;41.15;;
56477;SDS011;42382;53.210;5.772;2022-12-01T05:23:34;99.90;;;39.53;;
56477;SDS011;42382;53.210;5.772;2022-12-01T05:26:02;99.72;;;38.67;;
56477;SDS011;42382;53.210;5.772;2022-12-01T05:28:29;102.47;;;39.95;;
56477;SDS011;42382;53.210;5.772;2022-12-01T05:30:55;100.38;;;39.45;;
56477;SDS011;42382;53.210;5.772;2022-12-01T05:33:21;90.22;;;37.17;;
56477;SDS011;42382;53.210;5.772;2022-12-01T05:35:51;104.60;;;40.97;;
56477;SDS011;42382;53.210;5.772;2022-12-01T05:38:17;100.13;;;40.13;;
56477;SDS011;42382;53.210;5.772;2022-12-01T05:40:50;96.63;;;38.30;;
56477;SDS011;42382;53.210;5.772;2022-12-01T05:43:17;106.38;;;40.63;;
56477;SDS011;42382;53.210;5.772;2022-12-01T05:45:44;96.03;;;38.20;;
56477;SDS011;42382;53.210;5.772;2022-12-01T05:48:09;94.75;;;37.58;;
56477;SDS011;42382;53.210;5.772;2022-12-01T05:50:36;94.30;;;38.92;;
56477;SDS011;42382;53.210;5.772;2022-12-01T05:53:04;94.57;;;35.90;;
56477;SDS011;42382;53.210;5.772;2022-12-01T05:55:31;84.97;;;36.15;;
56477;SDS011;42382;53.210;5.772;2022-12-01T05:57:58;99.72;;;38.60;;
56477;SDS011;42382;53.210;5.772;2022-12-01T06:00:24;93.55;;;38.33;;
56477;SDS011;42382;53.210;5.772;2022-12-01T06:02:50;99.07;;;39.25;;
56477;SDS011;42382;53.210;5.772;2022-12-01T06:05:15;87.57;;;35.80;;
56477;SDS011;42382;53.210;5.772;2022-12-01T06:07:41;103.57;;;39.60;;
56477;SDS011;42382;53.210;5.772;2022-12-01T06:10:07;94.80;;;38.10;;
56477;SDS011;42382;53.210;5.772;2022-12-01T06:12:34;97.32;;;37.88;;
56477;SDS011;42382;53.210;5.772;2022-12-01T06:15:00;99.57;;;37.65;;
56477;SDS011;42382;53.210;5.772;2022-12-01T06:17:28;98.53;;;39.92;;
56477;SDS011;42382;53.210;5.772;2022-12-01T06:19:54;91.05;;;35.95;;
56477;SDS011;42382;53.210;5.772;2022-12-01T06:22:20;95.47;;;36.80;;
56477;SDS011;42382;53.210;5.772;2022-12-01T06:24:46;97.55;;;38.67;;
56477;SDS011;42382;53.210;5.772;2022-12-01T06:27:11;94.15;;;37.53;;
56477;SDS011;42382;53.210;5.772;2022-12-01T06:29:37;97.53;;;36.72;;
56477;SDS011;42382;53.210;5.772;2022-12-01T06:32:02;94.50;;;36.22;;
56477;SDS011;42382;53.210;5.772;2022-12-01T06:34:28;107.88;;;38.33;;
56477;SDS011;42382;53.210;5.772;2022-12-01T06:36:54;92.65;;;37.70;;
56477;SDS011;42382;53.210;5.772;2022-12-01T06:39:19;90.40;;;35.55;;
56477;SDS011;42382;53.210;5.772;2022-12-01T06:41:45;99.53;;;37.05;;
56477;SDS011;42382;53.210;5.772;2022-12-01T06:44:11;93.78;;;36.88;;
56477;SDS011;42382;53.210;5.772;2022-12-01T06:46:37;97.25;;;35.72;;
56477;SDS011;42382;53.210;5.772;2022-12-01T06:49:03;92.63;;;36.28;;
56477;SDS011;42382;53.210;5.772;2022-12-01T06:51:29;82.10;;;32.53;;
56477;SDS011;42382;53.210;5.772;2022-12-01T06:56:23;89.90;;;35.90;;
56477;SDS011;42382;53.210;5.772;2022-12-01T06:58:49;82.65;;;34.58;;
56477;SDS011;42382;53.210;5.772;2022-12-01T07:01:14;81.97;;;33.92;;
56477;SDS011;42382;53.210;5.772;2022-12-01T07:03:41;84.47;;;37.83;;
56477;SDS011;42382;53.210;5.772;2022-12-01T07:06:07;101.82;;;44.60;;
56477;SDS011;42382;53.210;5.772;2022-12-01T07:08:33;86.70;;;37.28;;
56477;SDS011;42382;53.210;5.772;2022-12-01T07:11:00;83.90;;;33.72;;
56477;SDS011;42382;53.210;5.772;2022-12-01T07:13:26;86.30;;;36.13;;
56477;SDS011;42382;53.210;5.772;2022-12-01T07:15:52;89.15;;;37.25;;
56477;SDS011;42382;53.210;5.772;2022-12-01T07:18:17;81.80;;;36.58;;
56477;SDS011;42382;53.210;5.772;2022-12-01T07:20:43;83.05;;;34.42;;
56477;SDS011;42382;53.210;5.772;2022-12-01T07:23:08;80.50;;;31.88;;
56477;SDS011;42382;53.210;5.772;2022-12-01T07:25:34;75.03;;;31.00;;
56477;SDS011;42382;53.210;5.772;2022-12-01T07:28:00;89.18;;;33.47;;
56477;SDS011;42382;53.210;5.772;2022-12-01T07:30:25;88.13;;;31.80;;
56477;SDS011;42382;53.210;5.772;2022-12-01T07:32:51;71.95;;;28.08;;
56477;SDS011;42382;53.210;5.772;2022-12-01T07:35:16;75.07;;;28.98;;
56477;SDS011;42382;53.210;5.772;2022-12-01T07:37:42;76.70;;;30.75;;
56477;SDS011;42382;53.210;5.772;2022-12-01T07:40:08;76.60;;;31.25;;
56477;SDS011;42382;53.210;5.772;2022-12-01T07:42:34;71.97;;;29.40;;
56477;SDS011;42382;53.210;5.772;2022-12-01T07:45:00;77.13;;;30.20;;
56477;SDS011;42382;53.210;5.772;2022-12-01T07:47:26;74.95;;;29.15;;
56477;SDS011;42382;53.210;5.772;2022-12-01T07:49:51;74.72;;;29.27;;
56477;SDS011;42382;53.210;5.772;2022-12-01T07:52:17;68.35;;;27.92;;
56477;SDS011;42382;53.210;5.772;2022-12-01T07:54:42;75.00;;;31.30;;
56477;SDS011;42382;53.210;5.772;2022-12-01T07:57:08;74.35;;;30.30;;
56477;SDS011;42382;53.210;5.772;2022-12-01T07:59:34;65.90;;;28.60;;
56477;SDS011;42382;53.210;5.772;2022-12-01T08:01:59;70.28;;;29.40;;
56477;SDS011;42382;53.210;5.772;2022-12-01T08:04:25;75.18;;;30.35;;
56477;SDS011;42382;53.210;5.772;2022-12-01T08:06:50;70.32;;;31.08;;
56477;SDS011;42382;53.210;5.772;2022-12-01T08:09:16;69.93;;;30.27;;
56477;SDS011;42382;53.210;5.772;2022-12-01T08:11:42;74.85;;;31.63;;
56477;SDS011;42382;53.210;5.772;2022-12-01T08:14:07;68.45;;;29.40;;
56477;SDS011;42382;53.210;5.772;2022-12-01T08:16:33;72.40;;;29.90;;
56477;SDS011;42382;53.210;5.772;2022-12-01T08:18:58;70.85;;;29.83;;
56477;SDS011;42382;53.210;5.772;2022-12-01T08:21:24;72.32;;;29.85;;
56477;SDS011;42382;53.210;5.772;2022-12-01T08:23:53;72.70;;;29.60;;
56477;SDS011;42382;53.210;5.772;2022-12-01T08:26:20;74.30;;;29.27;;
56477;SDS011;42382;53.210;5.772;2022-12-01T08:28:47;63.83;;;27.88;;
56477;SDS011;42382;53.210;5.772;2022-12-01T08:31:17;76.40;;;29.73;;
56477;SDS011;42382;53.210;5.772;2022-12-01T08:33:43;69.97;;;29.48;;
56477;SDS011;42382;53.210;5.772;2022-12-01T08:36:10;68.45;;;28.75;;
56477;SDS011;42382;53.210;5.772;2022-12-01T08:38:35;67.15;;;26.90;;
56477;SDS011;42382;53.210;5.772;2022-12-01T08:41:02;61.75;;;26.52;;
56477;SDS011;42382;53.210;5.772;2022-12-01T08:43:30;68.15;;;28.35;;
56477;SDS011;42382;53.210;5.772;2022-12-01T08:45:57;67.80;;;28.27;;
56477;SDS011;42382;53.210;5.772;2022-12-01T08:48:24;63.35;;;28.20;;
56477;SDS011;42382;53.210;5.772;2022-12-01T08:50:50;64.32;;;27.27;;
56477;SDS011;42382;53.210;5.772;2022-12-01T08:53:16;68.70;;;28.33;;
56477;SDS011;42382;53.210;5.772;2022-12-01T08:55:41;65.15;;;26.83;;
56477;SDS011;42382;53.210;5.772;2022-12-01T08:58:07;67.88;;;26.27;;
56477;SDS011;42382;53.210;5.772;2022-12-01T09:00:33;61.92;;;26.67;;
56477;SDS011;42382;53.210;5.772;2022-12-01T09:02:59;58.40;;;26.63;;
56477;SDS011;42382;53.210;5.772;2022-12-01T09:05:25;54.92;;;26.50;;
56477;SDS011;42382;53.210;5.772;2022-12-01T09:07:50;57.35;;;27.30;;
56477;SDS011;42382;53.210;5.772;2022-12-01T09:10:36;55.93;;;26.30;;
56477;SDS011;42382;53.210;5.772;2022-12-01T09:13:01;53.60;;;25.48;;
56477;SDS011;42382;53.210;5.772;2022-12-01T09:15:27;52.05;;;24.83;;
56477;SDS011;42382;53.210;5.772;2022-12-01T09:17:52;51.28;;;24.25;;
56477;SDS011;42382;53.210;5.772;2022-12-01T09:20:19;47.88;;;22.55;;
56477;SDS011;42382;53.210;5.772;2022-12-01T09:22:44;45.08;;;21.80;;
56477;SDS011;42382;53.210;5.772;2022-12-01T09:25:10;43.65;;;21.13;;
56477;SDS011;42382;53.210;5.772;2022-12-01T09:27:38;45.67;;;21.02;;
56477;SDS011;42382;53.210;5.772;2022-12-01T09:30:06;43.88;;;19.92;;
56477;SDS011;42382;53.210;5.772;2022-12-01T09:32:32;43.92;;;19.77;;
56477;SDS011;42382;53.210;5.772;2022-12-01T09:35:00;39.78;;;19.17;;
56477;SDS011;42382;53.210;5.772;2022-12-01T09:37:25;40.67;;;19.60;;
56477;SDS011;42382;53.210;5.772;2022-12-01T09:39:51;41.05;;;18.83;;
56477;SDS011;42382;53.210;5.772;2022-12-01T09:42:16;40.53;;;20.10;;
56477;SDS011;42382;53.210;5.772;2022-12-01T09:44:47;39.85;;;18.23;;
56477;SDS011;42382;53.210;5.772;2022-12-01T09:52:24;24.75;;;14.30;;
56477;SDS011;42382;53.210;5.772;2022-12-01T09:54:54;30.50;;;15.25;;
56477;SDS011;42382;53.210;5.772;2022-12-01T09:59:55;25.42;;;12.45;;
56477;SDS011;42382;53.210;5.772;2022-12-01T10:02:32;28.40;;;13.73;;
56477;SDS011;42382;53.210;5.772;2022-12-01T10:05:03;25.95;;;14.27;;
56477;SDS011;42382;53.210;5.772;2022-12-01T10:08:17;17.90;;;11.60;;
56477;SDS011;42382;53.210;5.772;2022-12-01T10:10:45;19.00;;;11.85;;
56477;SDS011;42382;53.210;5.772;2022-12-01T10:15:44;19.17;;;11.65;;
56477;SDS011;42382;53.210;5.772;2022-12-01T10:20:59;20.10;;;11.43;;
56477;SDS011;42382;53.210;5.772;2022-12-01T10:29:46;19.48;;;11.25;;
56477;SDS011;42382;53.210;5.772;2022-12-01T10:32:19;18.35;;;11.25;;
56477;SDS011;42382;53.210;5.772;2022-12-01T10:34:54;16.08;;;10.13;;
56477;SDS011;42382;53.210;5.772;2022-12-01T10:37:22;18.88;;;10.65;;
56477;SDS011;42382;53.210;5.772;2022-12-01T10:39:51;23.45;;;14.40;;
56477;SDS011;42382;53.210;5.772;2022-12-01T10:42:36;18.10;;;11.18;;
56477;SDS011;42382;53.210;5.772;2022-12-01T10:45:19;17.73;;;10.85;;
56477;SDS011;42382;53.210;5.772;2022-12-01T10:50:49;17.75;;;10.32;;
56477;SDS011;42382;53.210;5.772;2022-12-01T10:55:51;18.27;;;10.60;;
56477;SDS011;42382;53.210;5.772;2022-12-01T10:58:26;16.77;;;9.82;;
56477;SDS011;42382;53.210;5.772;2022-12-01T11:00:57;18.08;;;10.73;;
56477;SDS011;42382;53.210;5.772;2022-12-01T11:03:26;16.80;;;10.23;;
56477;SDS011;42382;53.210;5.772;2022-12-01T11:05:57;18.23;;;9.82;;
56477;SDS011;42382;53.210;5.772;2022-12-01T11:08:44;16.23;;;8.60;;
56477;SDS011;42382;53.210;5.772;2022-12-01T11:11:28;14.43;;;8.27;;
56477;SDS011;42382;53.210;5.772;2022-12-01T11:13:57;17.70;;;11.35;;
56477;SDS011;42382;53.210;5.772;2022-12-01T11:16:34;33.35;;;19.10;;
56477;SDS011;42382;53.210;5.772;2022-12-01T11:19:33;17.65;;;10.15;;
56477;SDS011;42382;53.210;5.772;2022-12-01T11:21:58;17.75;;;11.20;;
56477;SDS011;42382;53.210;5.772;2022-12-01T11:24:28;14.68;;;8.77;;
56477;SDS011;42382;53.210;5.772;2022-12-01T11:27:17;16.10;;;9.43;;
56477;SDS011;42382;53.210;5.772;2022-12-01T11:29:48;18.67;;;9.48;;
56477;SDS011;42382;53.210;5.772;2022-12-01T11:32:29;15.68;;;8.65;;
56477;SDS011;42382;53.210;5.772;2022-12-01T11:37:44;16.57;;;9.63;;
56477;SDS011;42382;53.210;5.772;2022-12-01T14:58:30;16.65;;;10.20;;
56477;SDS011;42382;53.210;5.772;2022-12-01T15:01:03;17.50;;;11.68;;
56477;SDS011;42382;53.210;5.772;2022-12-01T15:03:34;15.40;;;9.88;;
56477;SDS011;42382;53.210;5.772;2022-12-01T15:06:03;17.30;;;10.45;;
56477;SDS011;42382;53.210;5.772;2022-12-01T16:01:39;24.95;;;13.68;;
56477;SDS011;42382;53.210;5.772;2022-12-01T16:04:39;27.50;;;16.15;;
56477;SDS011;42382;53.210;5.772;2022-12-01T16:07:06;31.98;;;17.75;;
56477;SDS011;42382;53.210;5.772;2022-12-01T16:09:40;34.97;;;18.48;;
56477;SDS011;42382;53.210;5.772;2022-12-01T16:12:20;35.55;;;19.02;;
56477;SDS011;42382;53.210;5.772;2022-12-01T16:14:48;33.78;;;18.55;;
56477;SDS011;42382;53.210;5.772;2022-12-01T16:59:22;49.50;;;26.50;;
56477;SDS011;42382;53.210;5.772;2022-12-01T17:01:49;55.70;;;27.42;;
56477;SDS011;42382;53.210;5.772;2022-12-01T17:13:57;54.97;;;27.83;;
56477;SDS011;42382;53.210;5.772;2022-12-01T17:16:22;56.28;;;28.35;;
56477;SDS011;42382;53.210;5.772;2022-12-01T17:18:48;56.80;;;27.85;;
56477;SDS011;42382;53.210;5.772;2022-12-01T17:21:13;51.97;;;27.35;;
56477;SDS011;42382;53.210;5.772;2022-12-01T17:23:39;53.47;;;28.35;;
56477;SDS011;42382;53.210;5.772;2022-12-01T17:26:05;50.40;;;27.10;;
56477;SDS011;42382;53.210;5.772;2022-12-01T17:28:36;55.03;;;28.00;;
56477;SDS011;42382;53.210;5.772;2022-12-01T18:22:16;67.97;;;33.97;;
56477;SDS011;42382;53.210;5.772;2022-12-01T18:24:42;74.50;;;36.17;;
56477;SDS011;42382;53.210;5.772;2022-12-01T18:27:07;67.53;;;32.70;;
56477;SDS011;42382;53.210;5.772;2022-12-01T18:29:33;73.35;;;38.30;;
56477;SDS011;42382;53.210;5.772;2022-12-01T18:31:59;74.32;;;38.83;;
56477;SDS011;42382;53.210;5.772;2022-12-01T18:34:25;71.22;;;37.13;;
56477;SDS011;42382;53.210;5.772;2022-12-01T18:36:54;76.90;;;38.78;;
56477;SDS011;42382;53.210;5.772;2022-12-01T18:39:19;71.10;;;36.15;;
56477;SDS011;42382;53.210;5.772;2022-12-01T18:41:45;79.82;;;38.22;;
56477;SDS011;42382;53.210;5.772;2022-12-01T18:44:11;71.83;;;36.13;;
56477;SDS011;42382;53.210;5.772;2022-12-01T19:45:01;67.70;;;35.10;;
56477;SDS011;42382;53.210;5.772;2022-12-01T19:47:33;67.35;;;33.88;;
56477;SDS011;42382;53.210;5.772;2022-12-01T19:49:59;67.35;;;35.50;;
56477;SDS011;42382;53.210;5.772;2022-12-01T19:52:25;68.25;;;34.63;;
56477;SDS011;42382;53.210;5.772;2022-12-01T19:54:52;69.05;;;34.63;;
56477;SDS011;42382;53.210;5.772;2022-12-01T19:57:18;73.95;;;36.30;;
56477;SDS011;42382;53.210;5.772;2022-12-01T19:59:44;71.38;;;34.72;;
56477;SDS011;42382;53.210;5.772;2022-12-01T20:02:10;75.10;;;36.22;;
56477;SDS011;42382;53.210;5.772;2022-12-01T20:16:45;66.72;;;35.35;;
56477;SDS011;42382;53.210;5.772;2022-12-01T20:19:10;71.13;;;36.28;;
56477;SDS011;42382;53.210;5.772;2022-12-01T20:21:37;70.90;;;35.67;;
56477;SDS011;42382;53.210;5.772;2022-12-01T20:24:07;72.03;;;35.30;;
56477;SDS011;42382;53.210;5.772;2022-12-01T20:26:39;69.72;;;34.97;;
56477;SDS011;42382;53.210;5.772;2022-12-01T20:29:07;70.57;;;34.75;;
56477;SDS011;42382;53.210;5.772;2022-12-01T20:31:39;67.78;;;34.03;;
56477;SDS011;42382;53.210;5.772;2022-12-01T20:34:07;72.55;;;35.75;;
56477;SDS011;42382;53.210;5.772;2022-12-01T20:36:34;67.47;;;33.80;;
56477;SDS011;42382;53.210;5.772;2022-12-01T20:39:01;67.75;;;34.75;;
56477;SDS011;42382;53.210;5.772;2022-12-01T20:41:31;73.50;;;35.42;;
56477;SDS011;42382;53.210;5.772;2022-12-01T20:43:57;72.50;;;35.60;;
56477;SDS011;42382;53.210;5.772;2022-12-01T20:46:26;73.82;;;35.50;;
56477;SDS011;42382;53.210;5.772;2022-12-01T20:48:51;69.78;;;35.10;;
56477;SDS011;42382;53.210;5.772;2022-12-01T20:51:17;69.70;;;34.20;;
56477;SDS011;42382;53.210;5.772;2022-12-01T20:53:46;70.22;;;35.83;;
56477;SDS011;42382;53.210;5.772;2022-12-01T20:56:11;75.82;;;37.30;;
56477;SDS011;42382;53.210;5.772;2022-12-01T20:58:38;75.28;;;35.88;;
56477;SDS011;42382;53.210;5.772;2022-12-01T21:01:14;68.45;;;33.97;;
56477;SDS011;42382;53.210;5.772;2022-12-01T21:03:41;69.72;;;35.30;;
56477;SDS011;42382;53.210;5.772;2022-12-01T21:06:08;71.80;;;34.97;;
56477;SDS011;42382;53.210;5.772;2022-12-01T21:08:36;74.85;;;35.45;;
56477;SDS011;42382;53.210;5.772;2022-12-01T21:11:06;71.05;;;35.72;;
56477;SDS011;42382;53.210;5.772;2022-12-01T21:13:40;71.88;;;35.22;;
56477;SDS011;42382;53.210;5.772;2022-12-01T21:16:28;71.28;;;34.65;;
56477;SDS011;42382;53.210;5.772;2022-12-01T21:18:59;68.20;;;34.20;;
56477;SDS011;42382;53.210;5.772;2022-12-01T21:21:34;75.53;;;37.17;;
56477;SDS011;42382;53.210;5.772;2022-12-01T21:26:32;75.78;;;37.17;;
56477;SDS011;42382;53.210;5.772;2022-12-01T21:28:59;73.32;;;34.63;;
56477;SDS011;42382;53.210;5.772;2022-12-01T21:31:26;71.80;;;35.03;;
56477;SDS011;42382;53.210;5.772;2022-12-01T21:33:51;67.57;;;35.08;;
56477;SDS011;42382;53.210;5.772;2022-12-01T21:36:19;70.70;;;33.28;;
56477;SDS011;42382;53.210;5.772;2022-12-01T21:38:50;69.60;;;33.85;;
56477;SDS011;42382;53.210;5.772;2022-12-01T21:41:26;65.22;;;32.60;;
56477;SDS011;42382;53.210;5.772;2022-12-01T21:44:01;72.93;;;34.58;;
56477;SDS011;42382;53.210;5.772;2022-12-01T21:46:36;69.55;;;32.63;;
56477;SDS011;42382;53.210;5.772;2022-12-01T21:49:17;71.78;;;33.60;;
56477;SDS011;42382;53.210;5.772;2022-12-01T21:51:44;71.70;;;34.78;;
56477;SDS011;42382;53.210;5.772;2022-12-01T21:54:14;71.88;;;33.88;;
56477;SDS011;42382;53.210;5.772;2022-12-01T21:56:42;71.25;;;34.55;;
56477;SDS011;42382;53.210;5.772;2022-12-01T21:59:15;66.72;;;33.63;;
56477;SDS011;42382;53.210;5.772;2022-12-01T22:01:44;76.40;;;34.95;;
56477;SDS011;42382;53.210;5.772;2022-12-01T22:04:15;73.03;;;35.25;;
56477;SDS011;42382;53.210;5.772;2022-12-01T22:06:50;74.63;;;36.50;;
56477;SDS011;42382;53.210;5.772;2022-12-01T22:50:21;67.10;;;33.40;;
56477;SDS011;42382;53.210;5.772;2022-12-01T22:52:53;70.32;;;33.20;;
56477;SDS011;42382;53.210;5.772;2022-12-01T22:55:23;70.93;;;32.97;;
56477;SDS011;42382;53.210;5.772;2022-12-01T22:57:48;70.18;;;34.45;;
56477;SDS011;42382;53.210;5.772;2022-12-01T23:00:15;68.70;;;32.80;;
56477;SDS011;42382;53.210;5.772;2022-12-01T23:02:43;71.03;;;34.60;;
56477;SDS011;42382;53.210;5.772;2022-12-01T23:07:46;70.85;;;32.80;;
56477;SDS011;42382;53.210;5.772;2022-12-01T23:12:45;66.00;;;30.70;;
56477;SDS011;42382;53.210;5.772;2022-12-01T23:18:31;65.88;;;32.28;;
56477;SDS011;42382;53.210;5.772;2022-12-01T23:20:54;69.05;;;31.15;;
56477;SDS011;42382;53.210;5.772;2022-12-01T23:23:25;66.60;;;31.23;;
56477;SDS011;42382;53.210;5.772;2022-12-01T23:25:59;67.50;;;32.20;;
56477;SDS011;42382;53.210;5.772;2022-12-01T23:28:26;67.78;;;31.80;;
56477;SDS011;42382;53.210;5.772;2022-12-01T23:30:55;75.20;;;32.65;;
56477;SDS011;42382;53.210;5.772;2022-12-01T23:33:33;60.83;;;29.80;;